Saturday, August 18, 2018, 1:59 PM GMT
Back to Local

CWJO, Jonquiere Automated Reporting Station

Location: , , Canada Lat: 48.417
Local Time: 1:59 PM GMT (13:59 GMT) Lon: -71.217
Time Zone: GMT Elev: 436 ft

Show me the last for .
Show Coded

Time T Td Feel RH Dir Speed Gust Alt SLP Vis Weather Sky Remarks
2018-08-18 13:00 62 60 - 93 50° 1 - - 29.98 0 None
2018-08-18 12:00 57 57 - 100 10° 1 - - 29.98 0 None
2018-08-18 11:00 54 54 - 100 230° 5 - - 29.98 0 None
2018-08-18 10:00 53 53 - 100 - Calm - - 29.98 0 None
2018-08-18 09:00 54 54 - 100 340° 3 - - 29.96 0 None
2018-08-18 08:00 54 54 - 100 310° 1 - - 29.96 0 None
2018-08-18 07:00 54 54 - 99 80° 1 - - 29.96 0 None
2018-08-18 06:00 56 56 - 99 210° 1 - - 29.96 0 None
2018-08-18 05:00 56 56 - 98 210° 2 - - 29.96 0 None
2018-08-18 04:00 56 56 - 98 130° 1 - - 29.96 0 None
2018-08-18 03:00 58 56 - 95 150° 5 - - 29.96 0 None
2018-08-18 02:00 59 56 - 89 150° 3 - - 29.99 0 1-hr Precip Total: 0.08"
2018-08-18 01:00 61 60 - 96 160° 5 - - 30.00 0 1-hr Precip Total: 0.04"
2018-08-18 00:00 62 61 - 94 340° 7 - - 29.99 0 1-hr Precip Total: 0.04"
2018-08-17 23:00 65 60 - 83 10° 2 - - 29.96 0 None
2018-08-17 22:00 67 60 - 77 20° 2 - - 29.98 0 None
2018-08-17 21:00 68 60 - 76 360° 3 - - 29.98 0 None
2018-08-17 20:00 71 59 76 67 350° 5 - - 29.98 0 None
2018-08-17 19:00 71 59 76 64 360° 2 - - 29.99 0 None
2018-08-17 18:00 71 59 76 64 10° 3 - - 30.00 0 None
2018-08-17 17:00 72 56 76 56 30° 5 - - 30.01 0 None
2018-08-17 16:00 70 56 - 60 20° 5 - - 30.03 0 None
2018-08-17 15:00 68 54 - 60 70° 3 - - 30.06 0 None
2018-08-17 14:00 65 54 - 68 80° 3 - - 30.07 0 None

Support USWX by starting your Amazon purchase here.